CYRQ

Trois-Rivieres Airport

Trois-Rivieres, , Canada
TAF AMD CYRQ 211533Z 2115/2202 35006KT P6SM SKC RMK FCST BASED ON AUTO OBS. NXT FCST BY 212000Z
Issued Valid From Valid To
Jun-21 @ 15:33 UTC
(3 hours ago)
Jun-21 @ 15:00 UTC
(3 hours ago)
Jun-22 @ 02:00 UTC
(in 8 hours)
Jun-21 @ 15:00 to Jun-22 @ 02:00
TAF AMD CYRQ 211533Z 2115/2202 35006KT P6SM SKC RMK FCST BASED ON AUTO OBS. NXT FCST BY 212000Z
Wind Visibility Clouds
350° at 6 knots Greater than 6 miles
  • Clear skies
TAF AMD CYRQ 211533Z 2115/2202 35006KT P6SM SKC RMK FCST BASED ON AUTO OBS. NXT FCST BY 212000Z
Issued Jun-21 @ 15:33 UTC
(3 hours ago)
Valid From Jun-21 @ 15:00 UTC
(3 hours ago)
Valid To Jun-22 @ 02:00 UTC
(in 8 hours)
Jun-21 @ 15:00 - Jun-22 @ 02:00
Wind Visibility
350° at 6 knots Greater than 6 miles
Clouds
  • Clear skies